White Mountain Summit Weather observations

Data are for 10 minute period ending at time listed.
 Day   Time   Solar   Ave.   Ave.  Ave.  Vector    Max.    Baro.  
  of    of     Rad.   Air    Rel.  Wind   Wind     Wind   Press.  
Year   Day            Temp.  Hum.  Speed  Dir.     Gust           
2015   (PST)   W/m2    F      %     mph   deg.      mph     mb.   
-------------------------------------------------------------------
 108    0:00    0.0    23   15.0    16    306.9    23.5   999.0 
 108    0:10    0.0    23   15.1    16    317.4    21.2   999.0 
 108    0:20    0.0    23   15.3    12    320.7    23.5   999.0 
 108    0:30    0.0    23   15.5    18    338.7    23.5   999.0 
 108    0:40    0.0    23   16.0    18    349.6    23.5   999.0 
 108    0:50    0.0    22   15.7    19     21.0    21.2   999.0 
 108    1:00    0.0    23   16.1    19      5.8    23.5   999.0 
 108    1:10    0.0    23   15.9    12    332.6    18.8   999.0 
 108    1:20    0.0    23   14.8    11    314.1    16.5   999.0 
 108    1:30    0.0    22   15.2    15    334.7    18.8   999.0 
 108    1:40    0.0    22   15.5    19    357.4    25.9   999.0 
 108    1:50    0.0    21   16.0    20    359.0    25.9   999.0 
 108    2:00    0.0    21   15.0    10    336.7    16.5   999.0 
 108    2:10    0.0    21   15.1     8    349.6    16.5   999.0 
 108    2:20    0.0    21   15.9     9    347.0    14.1   999.0 
 108    2:30    0.0    21   15.9     7    319.2    11.8   999.0 
 108    2:40    0.0    21   16.6     7    327.4    11.8   999.0 
 108    2:50    0.0    21   16.6     6    332.9    14.1   999.0 
 108    3:00    0.0    21   16.5     6    349.8    11.8   999.0 
 108    3:10    0.0    20   16.8     4     11.3     7.1   999.0 
 108    3:20    0.0    20   18.9     5    345.5     9.4   999.0 
 108    3:30    0.0    20   19.0     6    350.9    11.8   999.0 
 108    3:40    0.0    20   23.1    13     11.4    16.5   999.0 
 108    3:50    0.0    20   23.4    11      2.2    16.5   999.0 
 108    4:00    0.0    19   22.0     8    341.1    11.8   999.0 
 108    4:10    0.0    19   21.5    10    324.6    14.1   999.0 
 108    4:20    0.0    19   21.2    14    335.9    16.5   999.0 
 108    4:30    0.0    20   19.8    13    351.3    16.5   999.0 
 108    4:40    0.0    19   20.7    13    334.3    18.8   999.0 
 108    4:50    0.0    19   21.2    13    342.4    16.5   999.0 
 108    5:00    0.0    19   23.8    10     18.8    14.1   999.0 
 108    5:10    0.0    19   29.0    15     30.8    18.8   999.0 
 108    5:20    0.0    19   28.4    13      1.3    16.5   999.0 
 108    5:30    0.0    19   21.5    12    321.1    14.1   999.0 
 108    5:40    0.0    20   20.5    11    315.6    14.1   999.0 
 108    5:50    0.0    20   20.7    10    315.2    14.1   999.0 
 108    6:00    0.0    20   21.3     9    338.1    14.1   999.0 
 108    6:10    0.0    20   21.5    10    324.6    14.1   999.0 
 108    6:20  4248.0    21   21.6    12    320.7    14.1   999.0 
 108    6:30  3255.0    21   22.0    11    341.4    14.1   999.0 
 108    6:40  4577.0    22   21.9    11    334.7    16.5   999.0 
 108    6:50  7599.0    22   22.5    10    344.4    14.1   999.0 
 108    7:00  6043.0    23   22.8    10      1.8    14.1   999.0 
 108    7:10  1945.0    23   22.9    13      5.1    16.5   999.0 
 108    7:20    0.0    24   23.8    12      4.3    16.5   999.0 
 108    7:30  988.0    24   25.3     8    334.7    14.1   999.0 
 108    7:40  5531.0    24   24.5     8    300.5    14.1   999.0 
 108    7:50  1143.0    24   24.6     8    293.6    11.8   999.0 
 108    8:00  199.0    25   27.4     8      9.4    11.8   999.0 
 108    8:10    0.0    26   26.5     4    354.0     7.1   999.0 
 108    8:20   14.0    27   26.4     7     17.8    14.1   999.0 
 108    8:30    0.0    28   28.5     8     27.1    11.8   999.0 
 108    8:40    0.0    29   28.0     6     12.6     9.4   999.0 
 108    8:50    0.0    29   28.2     7     34.5    11.8   999.0 
 108    9:00    5.0    29   28.3     6    352.8     9.4   999.0 
 108    9:10    0.0    29   27.8     6     36.4     9.4   999.0 
 108    9:20    0.0    29   31.0     8     49.9    11.8   999.0 
 108    9:30    0.0    29   29.8     7     38.7    11.8   999.0 
 108    9:40    0.0    30   29.9     8     53.9    16.5   999.0 
 108    9:50    0.0    29   31.9     8     53.6    14.1   999.0 
 108   10:00    0.0    30   30.2     6     46.5     9.4   999.0 
 108   10:10    0.0    31   30.2     5    332.5    11.8   999.0 
 108   10:20    0.0    31   30.3     5    153.0     9.4   999.0 
 108   10:30    0.0    31   31.0     5    137.0    14.1   999.0 
 108   10:40    0.0    32   29.0     5    148.6     9.4   999.0 
 108   10:50    0.0    33   27.6     5    141.5    11.8   999.0 
 108   11:00    0.0    33   25.0     6    293.0    11.8   999.0 
 108   11:10    0.0    34   25.2     6    188.2     9.4   999.0 
 108   11:20    0.0    34   24.8     5    213.5     9.4   999.0 
 108   11:30    0.0    35   26.3     5    141.9     9.4   999.0 
 108   11:40    0.0    36   23.9     6    293.8     9.4   999.0 
 108   11:50    0.0    36   22.1     7    270.7    14.1   999.0 
 108   12:00    0.0    36   22.6     7    263.9    11.8   999.0 
 108   12:10    0.0    37   20.7     8    270.4    14.1   999.0 
 108   12:20    0.0    37   21.8     6    269.8    11.8   999.0 
 108   12:30    0.0    37   21.4     8    278.7    16.5   999.0 
 108   12:40    0.0    37   22.3     7    265.0    11.8   999.0 
 108   12:50    0.0    38   22.3     5    306.3     9.4   999.0 
 108   13:00    0.0    37   23.8     5    198.4    11.8   999.0 
 108   13:10    0.0    38   22.9     5    265.1     9.4   999.0 
 108   13:20    0.0    39   23.9     6    163.6    11.8   999.0 
 108   13:30    0.0    38   24.3     8    191.6    14.1   999.0 
 108   13:40    0.0    38   24.3     8    263.0    11.8   999.0 
 108   13:50    0.0    39   23.0     9    268.9    11.8   999.0 
 108   14:00    0.0    39   24.2     6    229.9    11.8   999.0 
 108   14:10    0.0    37   26.5     7    200.5    11.8   999.0 
 108   14:20    0.0    37   26.8     9    264.3    14.1   999.0 
 108   14:30    0.0    37   27.0     9    269.0    16.5   999.0 
 108   14:40    0.0    36   27.5     8    227.6    16.5   999.0 
 108   14:50    0.0    35   28.5     7    228.2    11.8   999.0 
 108   15:00    0.0    35   29.7    10    247.2    18.8   999.0 
 108   15:10    0.0    36   28.5    12    268.3    25.9   999.0 
 108   15:20    0.0    38   26.4    10    253.8    18.8   999.0 
 108   15:30    0.0    37   26.0    11    231.3    18.8   999.0 
 108   15:40    0.0    36   27.0    13    263.1    23.5   999.0 
 108   15:50    0.0    37   27.2    14    269.9    28.2   999.0 
 108   16:00    0.0    36   27.3    17    263.8    25.9   999.0 
 108   16:10    0.0    36   28.1     9    281.7    25.9   999.0 
 108   16:20    0.0    35   28.8    16    255.1    28.2   999.0 
 108   16:30    0.0    34   29.3     6     73.3    11.8   999.0 
 108   16:40    0.0    34   29.0     8    119.0    14.1   999.0 
 108   16:50    0.0    34   29.8     8     62.7    16.5   999.0 
 108   17:00    0.0    35   29.3     8     45.5    16.5   999.0 
 108   17:10    0.0    36   29.1    12     53.0    21.2   999.0 
 108   17:20    0.0    34   30.5    17     59.4    21.2   999.0 
 108   17:30    0.0    34   30.4    12     58.6    21.2   999.0 
 108   17:40    0.0    34   29.9    12     64.0    16.5   999.0 
 108   17:50    0.0    32   31.2    14     67.8    18.8   999.0 
 108   18:00    0.0    31   32.7    17     60.6    18.8   999.0 
 108   18:10    0.0    30   33.6    14     64.1    18.8   999.0 
 108   18:20    0.0    29   33.7    12     65.6    14.1   999.0 
 108   18:30    0.0    29   33.4    12     68.2    16.5   999.0 
 108   18:40    0.0    29   33.6    11     64.9    14.1   999.0 
 108   18:50    0.0    29   33.7    10     66.4    16.5   999.0 
 108   19:00    0.0    28   34.4    11     72.3    18.8   999.0 
 108   19:10    0.0    27   35.7    13     70.9    18.8   999.0 
 108   19:20    0.0    26   36.8    18     61.3    23.5   999.0 
 108   19:30    0.0    26   37.5    18     58.6    21.2   999.0 
 108   19:40    0.0    26   38.7    20     53.2    23.5   999.0 
 108   19:50    0.0    26   37.9    17     48.9    21.2   999.0 
 108   20:00    0.0    26   38.8    20     51.4    23.5   999.0 
 108   20:10    0.0    25   38.9    16     57.0    21.2   999.0 
 108   20:20    0.0    24   39.7    17     61.4    21.2   999.0 
 108   20:30    0.0    24   38.6     7     72.9    14.1   999.0 
 108   20:40    0.0    24   39.3     9     71.4    11.8   999.0 
 108   20:50    0.0    24   41.4    13     69.2    18.8   999.0 
 108   21:00    0.0    23   43.9    19     62.7    21.2   999.0 
 108   21:10    0.0    23   45.1    19     59.5    23.5   999.0 
 108   21:20    0.0    22   46.1    21     58.4    23.5   999.0 
 108   21:30    0.0    22   46.6    21     58.0    23.5   999.0 
 108   21:40    0.0    22   47.7    20     59.8    23.5   999.0 
 108   21:50    0.0    22   48.1    19     52.8    23.5   999.0 
 108   22:00    0.0    22   50.3    18     55.5    21.2   999.0 
 108   22:10    0.0    22   51.0    18     54.1    21.2   999.0 
 108   22:20    0.0    22   53.0    18     58.2    21.2   999.0 
 108   22:30    0.0    21   53.7    19     54.7    21.2   999.0 
 108   22:40    0.0    22   52.8    19     54.3    21.2   999.0 
 108   22:50    0.0    21   53.3    19     55.6    21.2   999.0 

Return to White Mountain graphs page.


Western Regional Climate Center,wrcc@dri.edu